Terminal Aerodrome Forecast
Issued by NWS

Home | Current Version | Previous Version | Text Only | Print | Product List | Glossary On
Versions: 1 2 3 4 5 6 7 8 9 10 11 12 13 14 15 16 17 18 19 20 21 22 23 24
061
FTUS41 KPBZ 260527
TAFZZV
TAF
KZZV 260527Z 2606/2706 00000KT 2SM BR SCT001
      TEMPO 2606/2607 1/2SM FG VV001
     FM260700 00000KT 1/2SM FG VV001
     FM260900 00000KT 1/4SM FG VV001
     FM261200 00000KT 1SM BR FEW001
     FM261300 13003KT 5SM BR FEW035
     FM261400 19005KT P6SM FEW050=

USA.gov is the U.S. government's official web portal to all federal, state and local government web resources and services.